Time;durP1;ratioP1;P1;durP2;ratioP2;P2;SDS_P1;SDS_P2;PMS_P1;PMS_P2;Temp;Humidity;BMP_temperature;BMP_pressure;BME280_temperature;BME280_humidity;BME280_pressure;Samples;Min_cycle;Max_cycle;Signal;HPM_P1;HPM_P2
2022/12/16 00:00:29;;;;;;;35.93;23.63;;;5.90;99.90;;;;;;5032217;28;20021;-78
2022/12/16 00:02:59;;;;;;;38.97;25.90;;;5.90;99.90;;;;;;5025947;28;20591;-78
2022/12/16 00:05:25;;;;;;;47.23;28.10;;;5.90;99.90;;;;;;5029220;28;20096;-78
2022/12/16 00:07:50;;;;;;;38.87;25.07;;;6.20;99.90;;;;;;5033742;28;20073;-78
2022/12/16 00:10:16;;;;;;;41.43;27.03;;;6.40;99.90;;;;;;5023372;28;20033;-78
2022/12/16 00:12:41;;;;;;;43.93;26.73;;;5.90;99.90;;;;;;5031393;28;20025;-78
2022/12/16 00:15:07;;;;;;;38.43;24.77;;;6.00;99.90;;;;;;5030374;28;20098;-79
2022/12/16 00:17:35;;;;;;;46.90;26.63;;;5.90;99.90;;;;;;5029544;28;20030;-78
2022/12/16 00:20:02;;;;;;;48.50;28.60;;;6.00;99.90;;;;;;5040687;28;20059;-79
2022/12/16 00:22:28;;;;;;;52.13;30.23;;;6.00;99.90;;;;;;5040259;28;20037;-78
2022/12/16 00:24:53;;;;;;;44.43;27.37;;;6.30;99.90;;;;;;5033766;28;20451;-79
2022/12/16 00:27:19;;;;;;;49.80;29.40;;;6.00;99.90;;;;;;5033936;28;20041;-79
2022/12/16 00:29:45;;;;;;;49.77;29.70;;;6.20;99.90;;;;;;5031870;28;20017;-78
2022/12/16 00:32:10;;;;;;;51.50;31.70;;;6.10;99.90;;;;;;5034269;28;20120;-78
2022/12/16 00:34:36;;;;;;;49.63;29.80;;;6.20;99.90;;;;;;5047570;28;20121;-78
2022/12/16 00:37:02;;;;;;;49.33;29.43;;;6.20;99.90;;;;;;5033642;28;20033;-78
2022/12/16 00:39:27;;;;;;;51.70;28.17;;;5.90;99.90;;;;;;5033897;28;20075;-79
2022/12/16 00:41:53;;;;;;;47.60;28.53;;;5.80;99.90;;;;;;5026061;28;20029;-78
2022/12/16 00:44:19;;;;;;;53.17;31.73;;;5.40;99.90;;;;;;5033201;28;20033;-78
2022/12/16 00:46:44;;;;;;;52.43;30.73;;;5.80;99.90;;;;;;5046387;28;20116;-79
2022/12/16 00:49:10;;;;;;;50.30;29.03;;;5.70;99.90;;;;;;5033434;28;20080;-79
2022/12/16 00:51:35;;;;;;;48.77;29.17;;;5.70;99.90;;;;;;5027425;28;20021;-78
2022/12/16 00:54:01;;;;;;;52.40;30.60;;;5.70;99.90;;;;;;5031906;28;20483;-78
2022/12/16 00:56:27;;;;;;;57.73;32.07;;;5.80;99.90;;;;;;5033489;28;20025;-79
2022/12/16 00:58:52;;;;;;;60.53;34.47;;;5.80;99.90;;;;;;5025655;28;20049;-80
2022/12/16 01:01:18;;;;;;;53.90;31.30;;;5.90;99.90;;;;;;5032868;28;20029;-79
2022/12/16 01:03:44;;;;;;;61.20;32.60;;;5.60;99.90;;;;;;5031707;28;20139;-80
2022/12/16 01:06:15;;;;;;;51.90;30.50;;;5.50;99.90;;;;;;5034676;28;20117;-80
2022/12/16 01:08:47;;;;;;;50.87;29.30;;;5.70;99.90;;;;;;5031038;28;20056;-80
2022/12/16 01:11:14;;;;;;;45.67;25.10;;;5.60;99.90;;;;;;5029380;28;20055;-80
2022/12/16 01:13:40;;;;;;;42.77;26.03;;;5.80;99.90;;;;;;5032813;28;20022;-80
2022/12/16 01:16:08;;;;;;;53.33;28.53;;;5.50;99.90;;;;;;5032930;28;20099;-80
2022/12/16 01:18:34;;;;;;;41.67;26.30;;;5.50;99.90;;;;;;5032664;28;20029;-80
2022/12/16 01:21:05;;;;;;;48.17;27.07;;;5.50;99.90;;;;;;5032780;28;20374;-80
2022/12/16 01:23:32;;;;;;;42.23;24.30;;;5.40;99.90;;;;;;5033627;28;20072;-81
2022/12/16 01:25:59;;;;;;;46.50;26.03;;;5.30;99.90;;;;;;5040269;28;20091;-80
2022/12/16 01:28:25;;;;;;;38.90;24.43;;;5.40;99.90;;;;;;5032074;28;20025;-80
2022/12/16 01:31:00;;;;;;;44.47;25.97;;;5.40;99.90;;;;;;5032911;28;20029;-80
2022/12/16 01:33:28;;;;;;;42.43;24.17;;;5.60;99.90;;;;;;5024804;28;20348;-80
2022/12/16 01:36:07;;;;;;;44.57;25.00;;;5.40;99.90;;;;;;5033122;28;20070;-80
2022/12/16 01:38:34;;;;;;;44.37;25.20;;;5.50;99.90;;;;;;5019375;28;20332;-81
2022/12/16 01:41:00;;;;;;;40.67;23.90;;;5.50;99.90;;;;;;5026360;28;20025;-80
2022/12/16 01:43:30;;;;;;;44.23;27.47;;;5.10;99.90;;;;;;5032589;28;20104;-81
2022/12/16 01:46:04;;;;;;;49.07;28.13;;;5.50;99.90;;;;;;5032794;28;20100;-80
2022/12/16 01:48:44;;;;;;;44.00;26.15;;;5.70;99.90;;;;;;5021903;28;20104;-80
2022/12/16 01:51:25;;;;;;;42.00;26.60;;;5.30;99.90;;;;;;5032707;28;20097;-81
2022/12/16 01:54:08;;;;;;;47.03;25.80;;;5.10;99.90;;;;;;5032637;28;20026;-80
2022/12/16 01:56:38;;;;;;;48.90;26.13;;;5.30;99.90;;;;;;5032035;28;20033;-81
2022/12/16 01:59:04;;;;;;;47.80;27.87;;;4.80;99.90;;;;;;5032335;28;20032;-81
2022/12/16 02:01:30;;;;;;;44.60;27.63;;;5.00;99.90;;;;;;5030950;28;20410;-80
2022/12/16 02:04:00;;;;;;;42.83;24.27;;;5.20;99.90;;;;;;5032158;28;20027;-81
2022/12/16 02:06:27;;;;;;;44.53;25.50;;;4.80;99.90;;;;;;5030954;28;20029;-82
2022/12/16 02:08:55;;;;;;;47.53;26.80;;;5.30;99.90;;;;;;5030913;28;20041;-81
2022/12/16 02:11:59;;;;;;;50.70;27.00;;;5.40;99.90;;;;;;5026777;28;20037;-80
2022/12/16 02:14:42;;;;;;;53.17;27.97;;;5.50;99.90;;;;;;5018884;28;20496;-81
2022/12/16 02:17:15;;;;;;;52.80;29.03;;;5.10;99.90;;;;;;5027575;28;20373;-82
2022/12/16 02:20:18;;;;;;;51.77;27.10;;;5.50;99.90;;;;;;5031658;28;20120;-80
2022/12/16 02:23:02;;;;;;;52.43;27.03;;;5.60;99.90;;;;;;5046246;28;20372;-81
2022/12/16 02:25:49;;;;;;;59.73;27.93;;;5.60;99.90;;;;;;5032174;28;20167;-81
2022/12/16 02:28:38;;;;;;;50.60;26.93;;;5.50;99.90;;;;;;5020299;28;20288;-80
2022/12/16 02:38:08;;;;;;;54.97;27.87;;;5.50;99.90;;;;;;5027492;28;20179;-80
2022/12/16 02:40:53;;;;;;;46.93;27.20;;;5.50;99.90;;;;;;5028293;28;20040;-81
2022/12/16 02:43:47;;;;;;;54.77;28.27;;;5.40;99.90;;;;;;5034087;28;20025;-80
2022/12/16 02:46:13;;;;;;;55.87;28.93;;;5.50;99.90;;;;;;5034872;28;20071;-80
2022/12/16 02:48:39;;;;;;;51.77;26.00;;;5.60;99.90;;;;;;5034338;28;20040;-80
2022/12/16 02:51:05;;;;;;;50.60;25.90;;;5.50;99.90;;;;;;5035484;28;20033;-80
2022/12/16 02:53:35;;;;;;;52.97;26.43;;;5.50;99.90;;;;;;5035725;28;20099;-81
2022/12/16 02:56:17;;;;;;;56.30;27.50;;;5.20;99.90;;;;;;5035714;28;20025;-81
2022/12/16 02:59:01;;;;;;;46.80;25.00;;;5.30;99.90;;;;;;5035830;28;20040;-81
2022/12/16 03:01:54;;;;;;;45.23;24.90;;;5.50;99.90;;;;;;5035447;28;20053;-81
2022/12/16 03:04:33;;;;;;;57.73;27.93;;;5.00;99.90;;;;;;5035782;28;20084;-81
2022/12/16 03:07:00;;;;;;;45.43;24.80;;;5.20;99.90;;;;;;5044091;28;20088;-80
2022/12/16 03:09:31;;;;;;;51.37;27.67;;;5.30;99.90;;;;;;5035244;28;20495;-81
2022/12/16 03:11:58;;;;;;;49.57;25.40;;;5.10;99.90;;;;;;5035434;28;20033;-81
2022/12/16 03:14:28;;;;;;;54.13;25.83;;;5.40;99.90;;;;;;5035288;28;20032;-81
2022/12/16 03:16:54;;;;;;;50.67;25.00;;;5.20;99.90;;;;;;5035039;28;20038;-80
2022/12/16 03:19:21;;;;;;;53.57;25.90;;;5.50;99.90;;;;;;5035358;28;20108;-80
2022/12/16 03:22:05;;;;;;;47.97;24.53;;;5.40;99.90;;;;;;5035122;28;20029;-80
2022/12/16 03:24:32;;;;;;;52.87;24.17;;;5.30;99.90;;;;;;5034923;28;20017;-80
2022/12/16 03:27:09;;;;;;;51.87;24.63;;;5.30;99.90;;;;;;5034880;28;20033;-80
2022/12/16 03:29:49;;;;;;;47.10;24.90;;;5.30;99.90;;;;;;5034713;28;20030;-80
2022/12/16 03:32:27;;;;;;;54.27;25.63;;;5.30;99.90;;;;;;5035023;28;20096;-80
2022/12/16 03:34:59;;;;;;;49.60;23.70;;;5.30;99.90;;;;;;5034855;28;20026;-81
2022/12/16 03:37:30;;;;;;;54.20;25.20;;;5.60;99.90;;;;;;5034825;28;20041;-78
2022/12/16 03:40:00;;;;;;;52.67;27.27;;;5.70;99.90;;;;;;5032468;28;20060;-80
2022/12/16 03:42:26;;;;;;;55.00;25.87;;;5.80;99.90;;;;;;5026827;28;20029;-79
2022/12/16 03:44:52;;;;;;;50.57;23.67;;;5.80;99.90;;;;;;5034694;28;20032;-80
2022/12/16 03:47:18;;;;;;;45.03;22.70;;;5.70;99.90;;;;;;5034555;28;20076;-79
2022/12/16 03:49:44;;;;;;;52.87;25.07;;;5.70;99.90;;;;;;5034462;28;20037;-79
2022/12/16 03:52:10;;;;;;;47.97;22.10;;;5.60;99.90;;;;;;5032244;28;20437;-80
2022/12/16 03:54:36;;;;;;;41.70;20.40;;;5.50;99.90;;;;;;5034194;28;20121;-79
2022/12/16 03:57:02;;;;;;;42.23;21.87;;;5.30;99.90;;;;;;5020530;28;20081;-79
2022/12/16 03:59:28;;;;;;;47.50;23.00;;;5.60;99.90;;;;;;5045133;28;20040;-80
2022/12/16 04:01:53;;;;;;;36.80;19.60;;;5.40;99.90;;;;;;5037269;28;20030;-80
2022/12/16 04:04:19;;;;;;;39.77;20.40;;;5.40;99.90;;;;;;5034485;28;20111;-81
2022/12/16 04:07:18;;;;;;;43.97;22.07;;;5.50;99.90;;;;;;5033529;28;20042;-78
2022/12/16 04:09:30;;;;;;;44.37;21.03;;;5.50;99.90;;;;;;5033796;28;20049;-80
2022/12/16 04:25:46;;;;;;;36.38;19.30;;;5.60;99.90;;;;;;5034253;28;20079;-81
2022/12/16 04:28:12;;;;;;;37.67;19.77;;;5.60;99.90;;;;;;5030462;28;20034;-79
2022/12/16 04:30:38;;;;;;;33.47;18.83;;;5.60;99.90;;;;;;5033756;28;20018;-81
